Time;durP1;ratioP1;P1;durP2;ratioP2;P2;SDS_P1;SDS_P2;PMS_P1;PMS_P2;Temp;Humidity;BMP_temperature;BMP_pressure;BME280_temperature;BME280_humidity;BME280_pressure;Samples;Min_cycle;Max_cycle;Signal;HPM_P1;HPM_P2
2022/11/07 00:01:00;;;;;;;29.67;15.65;;;;;;;;;;4899190;29;20541;-64
2022/11/07 00:03:26;;;;;;;25.17;15.25;;;;;;;;;;4899855;29;20071;-63
2022/11/07 00:05:53;;;;;;;30.75;15.63;;;;;;;;;;4899873;29;20052;-63
2022/11/07 00:08:30;;;;;;;22.50;16.00;;;;;;;;;;4899112;29;20125;-63
2022/11/07 00:10:56;;;;;;;22.42;14.38;;;;;;;;;;4899149;29;20092;-68
2022/11/07 00:13:22;;;;;;;;;;;;;;;;;;4900006;29;20136;-66
2022/11/07 00:15:48;;;;;;;23.60;14.68;;;;;;;;;;4899010;29;19970;-65
2022/11/07 00:18:14;;;;;;;19.58;13.43;;;;;;;;;;4897876;29;20108;-63
2022/11/07 00:20:40;;;;;;;22.23;13.57;;;;;;;;;;4898890;29;20393;-66
2022/11/07 00:23:07;;;;;;;20.45;13.90;;;;;;;;;;4898832;29;20058;-69
2022/11/07 00:25:33;;;;;;;23.10;12.68;;;;;;;;;;4899508;29;20128;-67
2022/11/07 00:27:59;;;;;;;22.80;13.35;;;;;;;;;;4899279;29;20048;-66
2022/11/07 00:30:25;;;;;;;23.33;13.13;;;;;;;;;;4899170;29;20056;-67
2022/11/07 00:32:51;;;;;;;25.60;14.45;;;;;;;;;;4898805;29;20449;-68
2022/11/07 00:35:17;;;;;;;19.83;13.00;;;;;;;;;;4898065;29;20382;-63
2022/11/07 00:37:43;;;;;;;21.90;14.15;;;;;;;;;;4898929;29;20052;-65
2022/11/07 00:40:09;;;;;;;19.20;12.75;;;;;;;;;;4898439;29;20056;-67
2022/11/07 00:42:35;;;;;;;28.42;14.40;;;;;;;;;;4897500;29;20576;-67
2022/11/07 00:45:02;;;;;;;21.60;13.38;;;;;;;;;;4897431;29;20044;-72
2022/11/07 00:47:28;;;;;;;23.88;14.05;;;;;;;;;;4897942;29;20560;-70
2022/11/07 00:49:54;;;;;;;23.17;14.98;;;;;;;;;;4897672;29;20446;-73
2022/11/07 00:52:20;;;;;;;25.10;13.98;;;;;;;;;;4898464;29;20078;-69
2022/11/07 00:54:46;;;;;;;22.30;13.18;;;;;;;;;;4897960;29;20485;-64
2022/11/07 00:57:13;;;;;;;23.67;13.65;;;;;;;;;;4897208;29;20382;-73
2022/11/07 00:59:39;;;;;;;23.35;13.52;;;;;;;;;;4898212;29;20064;-73
2022/11/07 01:02:05;;;;;;;26.00;14.18;;;;;;;;;;4898271;29;20048;-66
2022/11/07 01:07:15;;;;;;;25.15;14.70;;;;;;;;;;4898471;29;20121;-71
2022/11/07 01:09:41;;;;;;;27.83;14.13;;;;;;;;;;4897111;29;20053;-72
2022/11/07 01:12:07;;;;;;;25.52;14.68;;;;;;;;;;4898135;29;20052;-71
2022/11/07 01:14:33;;;;;;;22.65;13.93;;;;;;;;;;4897968;29;20048;-66
2022/11/07 01:16:59;;;;;;;26.55;14.57;;;;;;;;;;4897972;29;20045;-66
2022/11/07 01:19:25;;;;;;;26.05;12.82;;;;;;;;;;4897953;29;20059;-73
2022/11/07 01:21:51;;;;;;;31.95;14.35;;;;;;;;;;4898028;29;20493;-74
2022/11/07 01:24:18;;;;;;;23.13;13.85;;;;;;;;;;4897772;29;20088;-71
2022/11/07 01:26:46;;;;;;;28.23;13.73;;;;;;;;;;4897905;29;20063;-75
2022/11/07 01:29:13;;;;;;;25.88;13.38;;;;;;;;;;4897856;29;20117;-72
2022/11/07 01:31:39;;;;;;;28.83;14.52;;;;;;;;;;4897971;29;20166;-69
2022/11/07 01:34:05;;;;;;;23.77;13.25;;;;;;;;;;4898020;29;20080;-70
2022/11/07 01:36:32;;;;;;;28.63;13.93;;;;;;;;;;4897852;29;20049;-67
2022/11/07 01:38:58;;;;;;;22.38;13.70;;;;;;;;;;4897688;29;20048;-73
2022/11/07 01:41:26;;;;;;;28.30;14.13;;;;;;;;;;4897922;29;20048;-69
2022/11/07 01:43:55;;;;;;;30.35;14.60;;;;;;;;;;4896481;29;20068;-82
2022/11/07 01:46:23;;;;;;;29.42;14.85;;;;;;;;;;4881007;29;20048;-71
2022/11/07 01:48:55;;;;;;;30.80;14.55;;;;;;;;;;4896555;29;20052;-70
2022/11/07 01:51:22;;;;;;;32.05;15.65;;;;;;;;;;4897860;29;20473;-76
2022/11/07 01:53:49;;;;;;;28.60;14.68;;;;;;;;;;4897895;29;20040;-76
2022/11/07 01:56:16;;;;;;;27.17;14.07;;;;;;;;;;4896171;29;20056;-68
2022/11/07 01:58:44;;;;;;;28.52;14.93;;;;;;;;;;4898111;29;20397;-66
2022/11/07 02:01:10;;;;;;;25.33;14.13;;;;;;;;;;4897428;29;20049;-68
2022/11/07 02:03:36;;;;;;;29.38;15.55;;;;;;;;;;4896636;29;20140;-69
2022/11/07 02:06:13;;;;;;;30.38;12.43;;;;;;;;;;4897485;29;20052;-72
2022/11/07 02:08:39;;;;;;;26.73;13.07;;;;;;;;;;4897645;29;20063;-68
2022/11/07 02:11:06;;;;;;;27.17;13.48;;;;;;;;;;4896458;29;20048;-67
2022/11/07 02:13:32;;;;;;;;;;;;;;;;;;4898395;29;20044;-66
2022/11/07 02:15:59;;;;;;;25.98;13.35;;;;;;;;;;4897834;29;19924;-67
2022/11/07 02:18:26;;;;;;;25.27;12.80;;;;;;;;;;4897165;29;20095;-71
2022/11/07 02:20:54;;;;;;;26.10;10.93;;;;;;;;;;4901024;29;20154;-64
2022/11/07 02:23:25;;;;;;;26.55;10.82;;;;;;;;;;4900810;29;20059;-68
2022/11/07 02:25:51;;;;;;;24.25;10.70;;;;;;;;;;4901473;29;20079;-70
2022/11/07 02:28:19;;;;;;;28.63;11.02;;;;;;;;;;4901379;29;20063;-70
2022/11/07 02:30:45;;;;;;;20.98;10.15;;;;;;;;;;4900845;29;20068;-68
2022/11/07 02:33:21;;;;;;;24.52;10.70;;;;;;;;;;4900012;29;20045;-66
2022/11/07 02:35:48;;;;;;;24.50;10.40;;;;;;;;;;4900887;29;20048;-66
2022/11/07 02:38:26;;;;;;;20.05;8.88;;;;;;;;;;4900743;29;20434;-61
2022/11/07 02:40:56;;;;;;;25.98;9.18;;;;;;;;;;4900660;29;20052;-66
2022/11/07 02:43:23;;;;;;;18.23;8.13;;;;;;;;;;4900760;29;20091;-66
2022/11/07 02:45:50;;;;;;;24.17;7.95;;;;;;;;;;4900674;29;20060;-67
2022/11/07 02:48:16;;;;;;;16.10;7.50;;;;;;;;;;4900888;29;20119;-64
2022/11/07 02:50:42;;;;;;;23.42;8.25;;;;;;;;;;4900513;29;20509;-69
2022/11/07 02:53:08;;;;;;;;;;;;;;;;;;4899812;29;20099;-67
2022/11/07 02:55:34;;;;;;;19.80;9.02;;;;;;;;;;4900338;29;19963;-66
2022/11/07 02:58:00;;;;;;;19.27;7.63;;;;;;;;;;4899989;29;20060;-67
2022/11/07 03:00:27;;;;;;;18.20;8.35;;;;;;;;;;4901082;29;20057;-66
2022/11/07 03:02:53;;;;;;;27.95;8.80;;;;;;;;;;4900731;29;20052;-65
2022/11/07 03:05:19;;;;;;;17.75;8.15;;;;;;;;;;4900825;29;20071;-65
2022/11/07 03:07:46;;;;;;;16.00;7.30;;;;;;;;;;4900325;29;20056;-75
2022/11/07 03:10:13;;;;;;;19.48;7.43;;;;;;;;;;4900842;29;20055;-72
2022/11/07 03:12:39;;;;;;;19.92;6.88;;;;;;;;;;4900212;29;20067;-67
2022/11/07 03:15:06;;;;;;;14.98;6.53;;;;;;;;;;4900126;29;20045;-69
2022/11/07 03:17:32;;;;;;;20.75;6.70;;;;;;;;;;4900016;29;20055;-67
2022/11/07 03:19:58;;;;;;;20.30;7.75;;;;;;;;;;4899751;29;20052;-64
2022/11/07 03:22:24;;;;;;;19.25;7.10;;;;;;;;;;4900332;29;20484;-69
2022/11/07 03:24:50;;;;;;;19.70;7.43;;;;;;;;;;4899102;29;20048;-67
2022/11/07 03:27:16;;;;;;;19.13;7.65;;;;;;;;;;4898971;29;20052;-66
2022/11/07 03:29:42;;;;;;;21.05;8.38;;;;;;;;;;4899900;29;20052;-67
2022/11/07 03:32:08;;;;;;;18.80;7.95;;;;;;;;;;4900257;29;20052;-68
2022/11/07 03:34:34;;;;;;;22.75;8.50;;;;;;;;;;4899171;29;20112;-71
2022/11/07 03:37:01;;;;;;;22.48;8.60;;;;;;;;;;4900275;29;20389;-70
2022/11/07 03:39:27;;;;;;;21.73;9.02;;;;;;;;;;4900295;29;20075;-70
2022/11/07 03:41:53;;;;;;;23.65;9.00;;;;;;;;;;4900532;29;20056;-77
2022/11/07 03:44:19;;;;;;;22.25;9.13;;;;;;;;;;4900435;29;20056;-70
2022/11/07 03:46:45;;;;;;;20.63;8.55;;;;;;;;;;4900057;29;20157;-75
2022/11/07 03:49:11;;;;;;;17.00;7.95;;;;;;;;;;4899813;29;20556;-75
2022/11/07 03:51:37;;;;;;;24.00;8.40;;;;;;;;;;4899811;29;20055;-68
2022/11/07 03:54:03;;;;;;;24.00;7.80;;;;;;;;;;4900054;29;20135;-73
2022/11/07 03:56:29;;;;;;;20.63;7.05;;;;;;;;;;4900068;29;20430;-67
2022/11/07 03:58:55;;;;;;;23.85;7.05;;;;;;;;;;4899623;29;20095;-72
2022/11/07 04:01:21;;;;;;;16.95;6.65;;;;;;;;;;4899593;29;20056;-66
2022/11/07 04:03:48;;;;;;;24.88;7.00;;;;;;;;;;4899545;29;20045;-69
2022/11/07 04:06:14;;;;;;;18.80;7.03;;;;;;;;;;4899435;29;20052;-70
2022/11/07 04:08:40;;;;;;;25.98;6.90;;;;;;;;;;4899990;29;20052;-66
2022/11/07 04:11:06;;;;;;;20.10;7.07;;;;;;;;;;4899994;29;20084;-66
2022/11/07 04:17:18;;;;;;;22.70;7.60;;;;;;;;;;4899908;29;20103;-71
2022/11/07 04:19:13;;;;;;;20.10;6.82;;;;;;;;;;4898510;29;20469;-69
2022/11/07 04:21:39;;;;;;;22.63;6.95;;;;;;;;;;4899220;29;20544;-72
2022/11/07 04:24:05;;;;;;;24.65;7.75;;;;;;;;;;4899120;29;20045;-76
2022/11/07 04:29:16;;;;;;;22.67;7.78;;;;;;;;;;4899476;29;20056;-69
2022/11/07 04:31:42;;;;;;;23.65;7.95;;;;;;;;;;4899778;29;20103;-73
2022/11/07 04:34:08;;;;;;;23.65;7.07;;;;;;;;;;4899801;29;20224;-76
2022/11/07 04:36:35;;;;;;;23.98;7.95;;;;;;;;;;4898587;29;20069;-70
2022/11/07 04:39:01;;;;;;;20.95;6.80;;;;;;;;;;4898949;29;20477;-67
2022/11/07 04:41:27;;;;;;;23.02;7.78;;;;;;;;;;4898077;29;20048;-69
2022/11/07 04:43:53;;;;;;;25.13;7.55;;;;;;;;;;4898730;29;20055;-73
2022/11/07 04:46:19;;;;;;;27.05;8.18;;;;;;;;;;4898754;29;20139;-64
2022/11/07 04:48:45;;;;;;;;;;;;;;;;;;4898968;29;20049;-70
2022/11/07 04:51:19;;;;;;;23.67;7.53;;;;;;;;;;4898539;29;19995;-69
2022/11/07 04:53:45;;;;;;;24.25;7.65;;;;;;;;;;4898825;29;20052;-66
2022/11/07 04:56:12;;;;;;;25.02;8.20;;;;;;;;;;4897772;29;20135;-66
2022/11/07 04:58:38;;;;;;;33.30;8.50;;;;;;;;;;4897639;29;20087;-75
2022/11/07 05:01:04;;;;;;;26.70;8.48;;;;;;;;;;4898316;29;20513;-65
2022/11/07 05:03:30;;;;;;;20.35;8.70;;;;;;;;;;4898547;29;20052;-75
2022/11/07 05:05:56;;;;;;;24.20;9.60;;;;;;;;;;4898177;29;20552;-73
2022/11/07 05:08:22;;;;;;;25.65;9.40;;;;;;;;;;4898377;29;20045;-73
2022/11/07 05:10:48;;;;;;;28.05;10.63;;;;;;;;;;4898235;29;20049;-73
2022/11/07 05:13:14;;;;;;;33.08;12.18;;;;;;;;;;4898271;29;20201;-72
2022/11/07 05:15:40;;;;;;;27.50;10.68;;;;;;;;;;4897845;29;20505;-75
2022/11/07 05:18:06;;;;;;;25.25;9.65;;;;;;;;;;4897401;29;20103;-74
2022/11/07 05:20:34;;;;;;;27.95;10.93;;;;;;;;;;4897860;29;20072;-82
2022/11/07 05:23:20;;;;;;;22.17;10.52;;;;;;;;;;4897162;29;20097;-72
2022/11/07 05:25:48;;;;;;;28.75;10.75;;;;;;;;;;4900470;29;20101;-74
2022/11/07 05:28:21;;;;;;;27.23;10.43;;;;;;;;;;4901492;29;20056;-81
2022/11/07 05:30:47;;;;;;;29.27;10.73;;;;;;;;;;4900603;29;20100;-74
2022/11/07 05:33:15;;;;;;;31.52;9.98;;;;;;;;;;4898418;29;20056;-68
2022/11/07 05:35:41;;;;;;;27.63;10.68;;;;;;;;;;4897981;29;20049;-72
2022/11/07 05:38:07;;;;;;;31.00;10.30;;;;;;;;;;4898349;29;20051;-68
2022/11/07 05:40:34;;;;;;;24.73;10.93;;;;;;;;;;4898724;29;20086;-72
2022/11/07 05:43:01;;;;;;;22.65;10.15;;;;;;;;;;4900926;29;20060;-75
2022/11/07 05:45:28;;;;;;;28.88;11.35;;;;;;;;;;4897036;29;20135;-72
2022/11/07 05:47:58;;;;;;;24.45;10.48;;;;;;;;;;4896840;29;20052;-71
2022/11/07 05:50:25;;;;;;;31.33;11.43;;;;;;;;;;4898459;29;20053;-76
2022/11/07 05:52:51;;;;;;;;;;;;;;;;;;4900587;29;20051;-72
2022/11/07 05:55:17;;;;;;;34.75;11.48;;;;;;;;;;4902040;29;19923;-74
2022/11/07 05:57:43;;;;;;;;;;;;;;;;;;4902437;29;20654;-68
2022/11/07 06:00:10;;;;;;;27.88;11.13;;;;;;;;;;4902404;29;19927;-66
2022/11/07 06:02:35;;;;;;;;;;;;;;;;;;4902006;29;20059;-71
2022/11/07 06:05:02;;;;;;;31.08;12.57;;;;;;;;;;4916351;29;19924;-73
2022/11/07 06:07:28;;;;;;;30.88;12.48;;;;;;;;;;4901609;29;20057;-81
2022/11/07 06:09:54;;;;;;;27.05;12.80;;;;;;;;;;4902181;29;20512;-74
2022/11/07 06:12:20;;;;;;;29.80;12.10;;;;;;;;;;4901466;29;20129;-73
2022/11/07 06:14:46;;;;;;;30.92;12.98;;;;;;;;;;4901491;29;20048;-63
2022/11/07 06:17:12;;;;;;;29.92;13.82;;;;;;;;;;4901317;29;20044;-70
2022/11/07 06:19:38;;;;;;;30.23;13.63;;;;;;;;;;4901211;29;20059;-77
2022/11/07 06:22:04;;;;;;;29.70;13.10;;;;;;;;;;4901324;29;20060;-71
2022/11/07 06:24:30;;;;;;;32.33;12.63;;;;;;;;;;4901151;29;20040;-69
2022/11/07 06:26:56;;;;;;;32.03;13.23;;;;;;;;;;4899902;29;20500;-70
2022/11/07 06:29:22;;;;;;;30.98;14.13;;;;;;;;;;4901216;29;20048;-69
2022/11/07 06:31:48;;;;;;;31.02;13.43;;;;;;;;;;4901055;29;20553;-71
2022/11/07 06:34:14;;;;;;;32.20;13.20;;;;;;;;;;4900881;29;20499;-70
2022/11/07 06:36:40;;;;;;;25.75;12.63;;;;;;;;;;4899867;29;20386;-73
2022/11/07 06:39:06;;;;;;;28.15;13.80;;;;;;;;;;4899424;29;20044;-79
2022/11/07 06:41:32;;;;;;;32.03;13.68;;;;;;;;;;4900465;29;20060;-72
2022/11/07 06:43:58;;;;;;;32.95;13.80;;;;;;;;;;4900239;29;20052;-71
2022/11/07 06:46:24;;;;;;;30.98;13.07;;;;;;;;;;4900282;29;20088;-75
2022/11/07 06:48:51;;;;;;;25.02;12.18;;;;;;;;;;4899762;29;20480;-73
2022/11/07 06:51:17;;;;;;;28.45;13.18;;;;;;;;;;4900041;29;20044;-70
2022/11/07 06:53:43;;;;;;;23.13;11.88;;;;;;;;;;4898893;29;20041;-74
2022/11/07 06:56:11;;;;;;;27.63;11.27;;;;;;;;;;4883146;29;20104;-72
2022/11/07 06:58:37;;;;;;;30.65;11.40;;;;;;;;;;4898863;29;20057;-75
2022/11/07 07:01:05;;;;;;;27.30;11.05;;;;;;;;;;4898062;29;20092;-72
2022/11/07 07:03:31;;;;;;;21.98;10.68;;;;;;;;;;4898632;29;20131;-69
2022/11/07 07:06:01;;;;;;;27.17;11.23;;;;;;;;;;4898463;29;20097;-71
2022/11/07 07:08:27;;;;;;;24.85;11.02;;;;;;;;;;4898994;29;20576;-68
2022/11/07 07:10:54;;;;;;;26.42;9.88;;;;;;;;;;4898321;29;20403;-72
2022/11/07 07:13:20;;;;;;;26.75;10.65;;;;;;;;;;4899231;29;20088;-74
2022/11/07 07:15:53;;;;;;;25.02;9.50;;;;;;;;;;4898839;29;20045;-73
2022/11/07 07:18:20;;;;;;;26.88;10.45;;;;;;;;;;4898637;29;20052;-70
2022/11/07 07:20:46;;;;;;;28.25;11.23;;;;;;;;;;4898617;29;20135;-72
2022/11/07 07:23:12;;;;;;;29.98;10.27;;;;;;;;;;4898492;29;20112;-73
2022/11/07 07:25:38;;;;;;;28.88;11.73;;;;;;;;;;4898294;29;20068;-69
2022/11/07 07:28:04;;;;;;;32.03;11.60;;;;;;;;;;4898688;29;20492;-70
2022/11/07 07:30:31;;;;;;;34.28;11.70;;;;;;;;;;4898134;29;20489;-68
2022/11/07 07:32:57;;;;;;;30.23;12.93;;;;;;;;;;4897872;29;20134;-71
2022/11/07 07:35:23;;;;;;;35.30;14.23;;;;;;;;;;4898431;29;20047;-69
2022/11/07 07:37:50;;;;;;;35.47;13.30;;;;;;;;;;4898763;29;20075;-70
2022/11/07 07:40:16;;;;;;;35.75;16.38;;;;;;;;;;4898247;29;20049;-67
2022/11/07 07:42:43;;;;;;;33.72;15.20;;;;;;;;;;4898804;29;20056;-68
2022/11/07 07:45:10;;;;;;;33.95;16.63;;;;;;;;;;4897319;29;20501;-70
2022/11/07 07:47:36;;;;;;;35.50;17.77;;;;;;;;;;4898135;29;20055;-70
2022/11/07 07:50:02;;;;;;;34.20;16.27;;;;;;;;;;4897933;29;20053;-71
2022/11/07 07:52:28;;;;;;;39.15;16.73;;;;;;;;;;4897138;29;20053;-71
2022/11/07 07:54:54;;;;;;;42.40;18.17;;;;;;;;;;4897922;29;20052;-71
2022/11/07 07:57:21;;;;;;;37.28;17.92;;;;;;;;;;4898144;29;20044;-71
2022/11/07 07:59:47;;;;;;;;;;;;;;;;;;4898157;29;20060;-69
2022/11/07 08:02:13;;;;;;;36.95;16.92;;;;;;;;;;4897700;29;19930;-68
2022/11/07 08:04:42;;;;;;;38.28;17.50;;;;;;;;;;4896661;29;20080;-67
2022/11/07 08:07:08;;;;;;;43.50;18.40;;;;;;;;;;4897831;29;20394;-67
2022/11/07 08:09:37;;;;;;;32.95;16.83;;;;;;;;;;4898028;29;20055;-65
2022/11/07 08:12:04;;;;;;;34.63;17.65;;;;;;;;;;4897472;29;20048;-66
2022/11/07 08:14:30;;;;;;;30.52;16.77;;;;;;;;;;4897902;29;20184;-68
2022/11/07 08:16:56;;;;;;;42.17;17.85;;;;;;;;;;4896602;29;20049;-70
2022/11/07 08:19:22;;;;;;;44.95;18.38;;;;;;;;;;4897659;29;20056;-69
2022/11/07 08:21:48;;;;;;;38.05;18.08;;;;;;;;;;4897432;29;20065;-67
2022/11/07 08:24:14;;;;;;;42.05;17.27;;;;;;;;;;4897148;29;20045;-67
2022/11/07 08:26:40;;;;;;;40.17;17.58;;;;;;;;;;4897276;29;20048;-68
2022/11/07 08:29:07;;;;;;;33.88;16.55;;;;;;;;;;4897239;29;20051;-69
2022/11/07 08:31:33;;;;;;;41.80;19.60;;;;;;;;;;4897039;29;20512;-69
2022/11/07 08:33:59;;;;;;;38.13;17.77;;;;;;;;;;4897261;29;20044;-68
2022/11/07 08:36:25;;;;;;;;;;;;;;;;;;4898296;29;20399;-70
2022/11/07 08:38:51;;;;;;;44.28;18.52;;;;;;;;;;4897897;29;19923;-70
2022/11/07 08:41:18;;;;;;;51.75;18.10;;;;;;;;;;4897425;29;20052;-71
2022/11/07 08:43:44;;;;;;;41.75;19.50;;;;;;;;;;4897195;29;20405;-72
2022/11/07 08:46:10;;;;;;;41.42;17.40;;;;;;;;;;4897471;29;20056;-72
2022/11/07 08:48:36;;;;;;;41.47;17.65;;;;;;;;;;4895759;29;20055;-71
2022/11/07 08:51:02;;;;;;;42.13;18.88;;;;;;;;;;4896812;29;20052;-68
2022/11/07 08:53:28;;;;;;;41.05;17.40;;;;;;;;;;4897506;29;20049;-69
2022/11/07 08:55:54;;;;;;;;;;;;;;;;;;4898032;29;20142;-70
2022/11/07 08:58:20;;;;;;;41.70;18.17;;;;;;;;;;4897336;29;21242;-69
2022/11/07 09:00:46;;;;;;;38.45;16.63;;;;;;;;;;4897364;29;20091;-70
2022/11/07 09:03:13;;;;;;;37.78;17.30;;;;;;;;;;4896341;29;20362;-72
2022/11/07 09:05:39;;;;;;;40.53;16.80;;;;;;;;;;4896947;29;20048;-70
2022/11/07 09:08:05;;;;;;;37.95;16.58;;;;;;;;;;4895858;29;20374;-73
2022/11/07 09:10:31;;;;;;;;;;;;;;;;;;4897281;29;20131;-77
2022/11/07 09:12:57;;;;;;;41.70;16.75;;;;;;;;;;4896396;29;20010;-72
2022/11/07 09:15:23;;;;;;;38.15;16.40;;;;;;;;;;4897263;29;20501;-74
2022/11/07 09:17:49;;;;;;;45.72;17.13;;;;;;;;;;4896704;29;20501;-72
2022/11/07 09:20:16;;;;;;;45.28;17.60;;;;;;;;;;4896610;29;20064;-73
2022/11/07 09:22:42;;;;;;;31.92;15.80;;;;;;;;;;4897430;29;20071;-73
2022/11/07 09:25:09;;;;;;;34.33;15.65;;;;;;;;;;4896800;29;20089;-70
2022/11/07 09:27:35;;;;;;;44.63;17.27;;;;;;;;;;4896431;29;20055;-72
2022/11/07 09:30:02;;;;;;;28.25;13.80;;;;;;;;;;4896590;29;20134;-73
2022/11/07 09:32:28;;;;;;;;;;;;;;;;;;4897070;29;20049;-76
2022/11/07 09:34:54;;;;;;;37.58;14.25;;;;;;;;;;4896238;29;19983;-72
2022/11/07 09:37:23;;;;;;;33.72;12.75;;;;;;;;;;4896789;29;20044;-77
2022/11/07 09:39:49;;;;;;;36.95;13.63;;;;;;;;;;4896900;29;20131;-78
2022/11/07 09:42:33;;;;;;;29.42;12.45;;;;;;;;;;4896343;29;20088;-74
2022/11/07 09:45:00;;;;;;;33.67;13.95;;;;;;;;;;4896763;29;20088;-74
2022/11/07 09:47:26;;;;;;;;;;;;;;;;;;4897908;29;20132;-76
2022/11/07 09:49:55;;;;;;;29.40;12.70;;;;;;;;;;4897404;29;19927;-72
2022/11/07 09:52:25;;;;;;;34.13;13.82;;;;;;;;;;4897212;29;20057;-73
2022/11/07 09:54:57;;;;;;;38.70;13.40;;;;;;;;;;4897230;29;20462;-73
2022/11/07 09:57:33;;;;;;;31.13;12.80;;;;;;;;;;4896351;29;20049;-78
2022/11/07 10:00:01;;;;;;;32.25;13.15;;;;;;;;;;4897351;29;20067;-90
2022/11/07 10:02:30;;;;;;;35.22;13.65;;;;;;;;;;4896879;29;20099;-76
2022/11/07 10:04:57;;;;;;;31.27;12.02;;;;;;;;;;4897011;29;20127;-78
2022/11/07 10:07:38;;;;;;;35.45;12.00;;;;;;;;;;4896873;29;20135;-72
2022/11/07 10:10:10;;;;;;;30.67;11.48;;;;;;;;;;4896695;29;20439;-72
2022/11/07 10:12:41;;;;;;;35.85;12.85;;;;;;;;;;4896326;29;20053;-73
2022/11/07 10:15:13;;;;;;;34.95;11.02;;;;;;;;;;4897048;29;20484;-78
2022/11/07 10:17:58;;;;;;;30.10;11.65;;;;;;;;;;4880179;29;20549;-74
2022/11/07 10:20:35;;;;;;;29.65;11.75;;;;;;;;;;4895931;29;20512;-67
2022/11/07 10:23:12;;;;;;;28.80;11.55;;;;;;;;;;4894903;29;20056;-71
2022/11/07 10:25:44;;;;;;;26.10;11.57;;;;;;;;;;4896622;29;20045;-68
2022/11/07 10:28:17;;;;;;;27.70;12.27;;;;;;;;;;4896087;29;20059;-70
2022/11/07 10:30:50;;;;;;;25.52;11.70;;;;;;;;;;4896717;29;20048;-73
2022/11/07 10:33:19;;;;;;;36.20;13.43;;;;;;;;;;4896947;29;20060;-74
2022/11/07 10:35:49;;;;;;;36.80;12.95;;;;;;;;;;4896229;29;20049;-72
2022/11/07 10:38:26;;;;;;;32.20;12.07;;;;;;;;;;4895260;29;20060;-70
2022/11/07 10:40:52;;;;;;;25.90;10.40;;;;;;;;;;4899145;29;20044;-68
2022/11/07 10:43:27;;;;;;;28.58;9.70;;;;;;;;;;4899341;29;20060;-66
2022/11/07 10:45:54;;;;;;;27.52;10.95;;;;;;;;;;4899027;29;20057;-71
2022/11/07 10:48:20;;;;;;;28.98;10.52;;;;;;;;;;4897991;29;20416;-65
2022/11/07 10:50:51;;;;;;;27.20;10.95;;;;;;;;;;4899525;29;20052;-65
2022/11/07 10:53:19;;;;;;;29.70;9.80;;;;;;;;;;4899017;29;20405;-68
2022/11/07 10:55:49;;;;;;;28.42;9.32;;;;;;;;;;4899272;29;20143;-70
2022/11/07 10:58:20;;;;;;;23.80;9.75;;;;;;;;;;4899648;29;20052;-69
2022/11/07 11:00:56;;;;;;;26.08;9.52;;;;;;;;;;4897089;29;20057;-68
2022/11/07 11:03:27;;;;;;;27.45;8.93;;;;;;;;;;4899998;29;20052;-67
2022/11/07 11:05:54;;;;;;;27.70;9.70;;;;;;;;;;4899177;29;20230;-68
2022/11/07 11:08:30;;;;;;;25.38;9.00;;;;;;;;;;4898927;29;20059;-64
2022/11/07 11:10:57;;;;;;;27.55;9.98;;;;;;;;;;4899370;29;20401;-67
2022/11/07 11:13:33;;;;;;;29.10;9.63;;;;;;;;;;4899361;29;20060;-72
2022/11/07 11:16:07;;;;;;;24.63;9.33;;;;;;;;;;4899257;29;20458;-68
2022/11/07 11:18:33;;;;;;;27.15;8.82;;;;;;;;;;4899399;29;20044;-63
2022/11/07 11:21:01;;;;;;;26.02;8.88;;;;;;;;;;4898652;29;20130;-67
2022/11/07 11:23:30;;;;;;;26.73;9.85;;;;;;;;;;4898463;29;20079;-64
2022/11/07 11:26:07;;;;;;;30.00;9.07;;;;;;;;;;4898634;29;20416;-68
2022/11/07 11:28:33;;;;;;;30.55;10.07;;;;;;;;;;4899108;29;20044;-71
2022/11/07 11:31:05;;;;;;;25.00;8.75;;;;;;;;;;4898847;29;20048;-62
2022/11/07 11:33:39;;;;;;;26.52;8.85;;;;;;;;;;4898860;29;20045;-64
2022/11/07 11:36:24;;;;;;;26.92;8.80;;;;;;;;;;4898222;29;20532;-65
2022/11/07 11:38:53;;;;;;;30.00;10.95;;;;;;;;;;4898484;29;20051;-66
2022/11/07 11:41:22;;;;;;;28.02;9.98;;;;;;;;;;4897517;29;20049;-68
2022/11/07 11:44:04;;;;;;;28.02;9.00;;;;;;;;;;4898358;29;20048;-68
2022/11/07 11:46:33;;;;;;;25.42;9.32;;;;;;;;;;4898717;29;20055;-69
2022/11/07 11:49:04;;;;;;;29.35;9.30;;;;;;;;;;4898184;29;20392;-67
2022/11/07 11:51:39;;;;;;;26.27;9.05;;;;;;;;;;4898557;29;20391;-65
2022/11/07 11:54:13;;;;;;;24.80;9.63;;;;;;;;;;4897160;29;20088;-63
2022/11/07 11:56:54;;;;;;;36.17;9.98;;;;;;;;;;4898069;29;20112;-64
2022/11/07 11:59:38;;;;;;;26.15;9.43;;;;;;;;;;4897632;29;20377;-69
2022/11/07 12:02:23;;;;;;;29.33;9.63;;;;;;;;;;4897680;29;20104;-70
2022/11/07 12:04:58;;;;;;;24.90;9.52;;;;;;;;;;4897176;29;20135;-67
2022/11/07 12:07:44;;;;;;;22.00;10.18;;;;;;;;;;4897206;29;20125;-71
2022/11/07 12:10:16;;;;;;;29.27;9.85;;;;;;;;;;4896535;29;20097;-62
2022/11/07 12:12:55;;;;;;;20.95;8.95;;;;;;;;;;4897238;29;20242;-67
2022/11/07 12:15:21;;;;;;;25.33;9.05;;;;;;;;;;4897167;29;20040;-69
2022/11/07 12:17:52;;;;;;;21.63;9.30;;;;;;;;;;4897467;29;20056;-67
2022/11/07 12:20:25;;;;;;;24.15;8.73;;;;;;;;;;4896880;29;20401;-65
2022/11/07 12:22:51;;;;;;;22.00;9.02;;;;;;;;;;4897136;29;20529;-67
2022/11/07 12:25:44;;;;;;;24.08;9.35;;;;;;;;;;4897622;29;20086;-67
2022/11/07 12:28:13;;;;;;;20.45;8.57;;;;;;;;;;4897243;29;20136;-65
2022/11/07 12:30:39;;;;;;;22.20;8.50;;;;;;;;;;4898080;29;20435;-62
2022/11/07 12:33:28;;;;;;;27.67;9.18;;;;;;;;;;4897514;29;20052;-65
2022/11/07 12:36:01;;;;;;;21.05;7.90;;;;;;;;;;4897469;29;20516;-63
2022/11/07 12:38:28;;;;;;;22.17;8.10;;;;;;;;;;4897889;29;20052;-66
2022/11/07 12:41:06;;;;;;;23.02;8.80;;;;;;;;;;4897661;29;20218;-66
2022/11/07 12:43:42;;;;;;;23.88;8.52;;;;;;;;;;4896237;29;20552;-68
2022/11/07 12:46:14;;;;;;;21.60;9.15;;;;;;;;;;4897040;29;20044;-68
2022/11/07 12:48:55;;;;;;;21.13;8.40;;;;;;;;;;4896960;29;20508;-68
2022/11/07 12:51:30;;;;;;;18.05;7.97;;;;;;;;;;4896888;29;20052;-66
2022/11/07 12:53:59;;;;;;;22.85;7.75;;;;;;;;;;4897047;29;20481;-67
2022/11/07 12:56:30;;;;;;;21.05;7.72;;;;;;;;;;4880959;29;20051;-62
2022/11/07 12:58:56;;;;;;;23.33;7.10;;;;;;;;;;4897777;29;20080;-64
2022/11/07 13:01:39;;;;;;;20.67;7.70;;;;;;;;;;4896848;29;20469;-66
2022/11/07 13:04:19;;;;;;;22.98;8.43;;;;;;;;;;4897370;29;20140;-66
2022/11/07 13:06:52;;;;;;;21.08;8.02;;;;;;;;;;4897042;29;20053;-67
2022/11/07 13:09:37;;;;;;;18.45;7.35;;;;;;;;;;4897625;29;20401;-66
2022/11/07 13:12:05;;;;;;;19.00;6.43;;;;;;;;;;4897521;29;20052;-69
2022/11/07 13:14:38;;;;;;;19.50;6.43;;;;;;;;;;4896944;29;20051;-64
2022/11/07 13:17:07;;;;;;;18.38;6.05;;;;;;;;;;4897600;29;20087;-64
2022/11/07 13:19:40;;;;;;;22.95;6.70;;;;;;;;;;4896382;29;20052;-66
2022/11/07 13:22:15;;;;;;;17.75;6.03;;;;;;;;;;4897859;29;20069;-67
2022/11/07 13:25:00;;;;;;;20.17;6.60;;;;;;;;;;4897937;29;20115;-67
2022/11/07 13:27:32;;;;;;;22.83;8.50;;;;;;;;;;4895778;29;20052;-69
2022/11/07 13:30:09;;;;;;;22.63;8.48;;;;;;;;;;4895929;29;20099;-69
2022/11/07 13:32:38;;;;;;;27.77;8.40;;;;;;;;;;4896834;29;20058;-68
2022/11/07 13:35:07;;;;;;;26.45;9.05;;;;;;;;;;4896541;29;20516;-64
2022/11/07 13:37:37;;;;;;;24.30;8.85;;;;;;;;;;4896464;29;20053;-67
2022/11/07 13:40:10;;;;;;;26.30;10.10;;;;;;;;;;4896176;29;20572;-68
2022/11/07 13:42:36;;;;;;;31.33;10.75;;;;;;;;;;4896417;29;20045;-69
2022/11/07 13:45:08;;;;;;;24.98;10.23;;;;;;;;;;4896469;29;20136;-73
2022/11/07 13:47:38;;;;;;;23.77;9.70;;;;;;;;;;4897102;29;20139;-72
2022/11/07 13:50:15;;;;;;;22.45;9.77;;;;;;;;;;4896741;29;20445;-78
2022/11/07 13:52:44;;;;;;;27.10;10.88;;;;;;;;;;4895284;29;20044;-73
2022/11/07 13:55:15;;;;;;;28.08;10.77;;;;;;;;;;4896565;29;20050;-74
2022/11/07 13:57:42;;;;;;;26.88;9.98;;;;;;;;;;4896964;29;20410;-80
2022/11/07 14:00:13;;;;;;;24.80;9.45;;;;;;;;;;4895659;29;20482;-72
2022/11/07 14:02:40;;;;;;;27.55;10.57;;;;;;;;;;4895950;29;20099;-69
2022/11/07 14:05:07;;;;;;;24.25;9.38;;;;;;;;;;4896289;29;20064;-66
2022/11/07 14:07:35;;;;;;;26.45;9.68;;;;;;;;;;4896685;29;20056;-68
2022/11/07 14:10:01;;;;;;;30.75;9.65;;;;;;;;;;4896279;29;20087;-68
2022/11/07 14:12:28;;;;;;;21.10;9.73;;;;;;;;;;4896320;29;20052;-70
2022/11/07 14:14:55;;;;;;;27.20;9.55;;;;;;;;;;4898997;29;20542;-69
2022/11/07 14:17:22;;;;;;;24.58;8.85;;;;;;;;;;4899935;29;20052;-70
2022/11/07 14:19:48;;;;;;;24.48;9.68;;;;;;;;;;4900158;29;20052;-68
2022/11/07 14:22:25;;;;;;;23.45;8.68;;;;;;;;;;4899714;29;20059;-66
2022/11/07 14:24:55;;;;;;;32.45;10.07;;;;;;;;;;4899483;29;20482;-69
2022/11/07 14:27:22;;;;;;;25.05;9.85;;;;;;;;;;4899499;29;20049;-68
2022/11/07 14:29:52;;;;;;;26.92;9.40;;;;;;;;;;4900188;29;20204;-69
2022/11/07 14:32:18;;;;;;;26.33;9.68;;;;;;;;;;4899550;29;20398;-70
2022/11/07 14:34:45;;;;;;;30.67;9.57;;;;;;;;;;4900342;29;20053;-72
2022/11/07 14:37:13;;;;;;;24.88;8.95;;;;;;;;;;4899814;29;20052;-71
2022/11/07 14:39:40;;;;;;;23.85;8.60;;;;;;;;;;4899941;29;20178;-68
2022/11/07 14:42:06;;;;;;;;;;;;;;;;;;4900585;29;20053;-72
2022/11/07 14:44:39;;;;;;;24.33;8.98;;;;;;;;;;4914542;29;19931;-67